Time;durP1;ratioP1;P1;durP2;ratioP2;P2;SDS_P1;SDS_P2;PMS_P1;PMS_P2;Temp;Humidity;BMP_temperature;BMP_pressure;BME280_temperature;BME280_humidity;BME280_pressure;Samples;Min_cycle;Max_cycle;Signal;HPM_P1;HPM_P2
2024/01/03 00:01:23;;;;;;;1.80;0.60;;;;;;;8.72;100.00;98270.88;5034933;28;20495;-72
2024/01/03 00:03:49;;;;;;;1.83;0.50;;;;;;;8.77;100.00;98265.22;5034770;28;20534;-72
2024/01/03 00:06:16;;;;;;;1.50;0.40;;;;;;;8.77;100.00;98267.16;5034471;28;20443;-71
2024/01/03 00:08:43;;;;;;;1.50;0.40;;;;;;;8.75;100.00;98264.78;5034706;28;20857;-71
2024/01/03 00:11:18;;;;;;;1.60;0.40;;;;;;;8.80;100.00;98261.81;5034584;28;20987;-70
2024/01/03 00:14:11;;;;;;;1.90;0.70;;;;;;;8.81;100.00;98258.03;5034877;28;20419;-69
2024/01/03 00:16:39;;;;;;;1.50;0.40;;;;;;;8.84;100.00;98251.91;5035008;28;20495;-70
2024/01/03 00:19:13;;;;;;;1.60;0.40;;;;;;;8.82;100.00;98253.41;5034242;28;20448;-71
2024/01/03 00:21:39;;;;;;;1.50;0.40;;;;;;;8.84;100.00;98246.50;5034766;28;20455;-71
2024/01/03 00:24:08;;;;;;;1.50;0.40;;;;;;;8.88;100.00;98246.59;5034406;28;20895;-72
2024/01/03 00:26:36;;;;;;;1.60;0.40;;;;;;;8.93;100.00;98245.56;5034793;28;20447;-72
2024/01/03 00:29:06;;;;;;;1.50;0.30;;;;;;;8.98;100.00;98248.00;5034605;28;20573;-72
2024/01/03 00:31:38;;;;;;;1.63;0.43;;;;;;;8.97;100.00;98246.44;5034282;28;20474;-72
2024/01/03 00:34:13;;;;;;;1.50;0.40;;;;;;;8.94;100.00;98249.81;5034176;28;20861;-72
2024/01/03 00:36:40;;;;;;;1.73;0.60;;;;;;;8.92;100.00;98242.09;5034011;28;20431;-72
2024/01/03 00:39:08;;;;;;;1.60;0.40;;;;;;;8.88;100.00;98240.44;5033841;28;20896;-72
2024/01/03 00:41:35;;;;;;;1.73;0.43;;;;;;;8.91;100.00;98231.63;5034128;28;20454;-72
2024/01/03 00:44:01;;;;;;;1.77;0.53;;;;;;;8.96;100.00;98231.38;5034031;28;20772;-72
2024/01/03 00:46:30;;;;;;;1.60;0.43;;;;;;;8.95;100.00;98235.22;5034000;28;20529;-72
2024/01/03 00:48:56;;;;;;;2.27;0.60;;;;;;;8.96;100.00;98234.84;5034288;28;20511;-71
2024/01/03 00:51:23;;;;;;;1.50;0.40;;;;;;;8.99;100.00;98226.06;5033955;28;20923;-71
2024/01/03 00:53:50;;;;;;;1.60;0.40;;;;;;;9.00;100.00;98229.56;5033885;28;20467;-71
2024/01/03 00:56:18;;;;;;;1.60;0.50;;;;;;;8.95;100.00;98232.50;5033519;28;20967;-71
2024/01/03 00:58:45;;;;;;;1.60;0.47;;;;;;;8.96;100.00;98225.97;5033517;28;20957;-71
2024/01/03 01:01:11;;;;;;;1.67;0.50;;;;;;;9.00;100.00;98238.44;5033901;28;20507;-71
2024/01/03 01:03:39;;;;;;;1.57;0.40;;;;;;;9.07;100.00;98237.81;5034017;28;20520;-71
2024/01/03 01:06:07;;;;;;;1.63;0.50;;;;;;;9.04;100.00;98238.53;5033599;28;20602;-71
2024/01/03 01:08:34;;;;;;;1.60;0.40;;;;;;;8.99;100.00;98241.50;5033485;28;21081;-70
2024/01/03 01:11:01;;;;;;;1.50;0.40;;;;;;;8.96;100.00;98242.16;5033327;28;20473;-71
2024/01/03 01:13:27;;;;;;;2.03;0.60;;;;;;;8.95;100.00;98248.72;5033840;28;20780;-70
2024/01/03 01:15:54;;;;;;;1.60;0.40;;;;;;;8.89;100.00;98250.09;5033562;28;20463;-70
2024/01/03 01:18:20;;;;;;;1.60;0.40;;;;;;;8.84;100.00;98253.81;5033371;28;20877;-71
2024/01/03 01:20:49;;;;;;;1.50;0.40;;;;;;;8.86;100.00;98256.19;5033182;28;20451;-71
2024/01/03 01:23:15;;;;;;;1.60;0.40;;;;;;;8.89;100.00;98252.78;5033445;28;20478;-70
2024/01/03 01:25:42;;;;;;;1.60;0.40;;;;;;;8.94;100.00;98253.34;5033398;28;20509;-71
2024/01/03 01:28:09;;;;;;;1.50;0.40;;;;;;;8.98;100.00;98250.69;5033441;28;20483;-71
2024/01/03 01:30:35;;;;;;;1.90;0.40;;;;;;;9.03;100.00;98253.94;5033511;28;20783;-71
2024/01/03 01:33:02;;;;;;;1.50;0.30;;;;;;;9.06;100.00;98252.44;5033929;28;20441;-71
2024/01/03 01:35:29;;;;;;;1.50;0.40;;;;;;;9.05;100.00;98261.69;5033106;28;20455;-71
2024/01/03 01:37:57;;;;;;;1.63;0.40;;;;;;;9.02;100.00;98265.06;5033087;28;20440;-71
2024/01/03 01:40:23;;;;;;;1.70;0.40;;;;;;;9.00;100.00;98265.44;5033382;28;20530;-71
2024/01/03 01:42:52;;;;;;;1.50;0.30;;;;;;;9.00;100.00;98268.13;5032995;28;20439;-71
2024/01/03 01:45:18;;;;;;;1.50;0.30;;;;;;;8.97;100.00;98266.13;5033615;28;20911;-70
2024/01/03 01:47:45;;;;;;;1.50;0.30;;;;;;;8.97;100.00;98265.34;5033562;28;20485;-70
2024/01/03 01:50:12;;;;;;;1.60;0.40;;;;;;;8.93;100.00;98265.25;5033271;28;20893;-71
2024/01/03 01:52:40;;;;;;;1.60;0.40;;;;;;;8.96;100.00;98263.78;5033266;28;20443;-71
2024/01/03 01:55:10;;;;;;;1.50;0.40;;;;;;;8.90;100.00;98271.34;5032884;28;20808;-71
2024/01/03 01:57:37;;;;;;;1.57;0.40;;;;;;;8.89;100.00;98268.97;5033356;28;20427;-68
2024/01/03 02:00:06;;;;;;;1.60;0.40;;;;;;;8.88;100.00;98259.31;5032800;28;20537;-68
2024/01/03 02:02:35;;;;;;;1.50;0.40;;;;;;;8.90;100.00;98263.25;5033479;28;20439;-70
2024/01/03 02:05:02;;;;;;;1.60;0.40;;;;;;;8.89;100.00;98263.59;5033219;28;20462;-71
2024/01/03 02:07:31;;;;;;;1.60;0.40;;;;;;;8.91;100.00;98266.72;5034008;28;20977;-71
2024/01/03 02:09:57;;;;;;;1.50;0.30;;;;;;;8.88;100.00;98267.41;5036929;28;20624;-71
2024/01/03 02:12:29;;;;;;;1.50;0.30;;;;;;;8.82;100.00;98267.69;5037122;28;20443;-71
2024/01/03 02:14:56;;;;;;;1.50;0.40;;;;;;;8.83;100.00;98269.25;5036832;28;20478;-71
2024/01/03 02:17:23;;;;;;;1.50;0.37;;;;;;;8.95;100.00;98264.91;5036911;28;20518;-71
2024/01/03 02:19:51;;;;;;;1.50;0.40;;;;;;;8.97;100.00;98265.34;5036823;28;20530;-71
2024/01/03 02:22:19;;;;;;;1.50;0.40;;;;;;;8.91;100.00;98262.13;5036842;28;20522;-71
2024/01/03 02:24:45;;;;;;;1.50;0.30;;;;;;;8.87;100.00;98255.06;5036587;28;21037;-71
2024/01/03 02:27:12;;;;;;;1.50;0.30;;;;;;;8.82;100.00;98259.56;5036713;28;20447;-72
2024/01/03 02:29:39;;;;;;;2.03;0.57;;;;;;;8.89;100.00;98264.34;5036427;28;20581;-72
2024/01/03 02:32:06;;;;;;;1.50;0.40;;;;;;;8.99;100.00;98266.56;5037055;28;20518;-72
2024/01/03 02:34:32;;;;;;;1.50;0.40;;;;;;;9.06;100.00;98263.25;5036455;28;20458;-72
2024/01/03 02:36:59;;;;;;;1.53;0.37;;;;;;;9.04;100.00;98271.72;5036116;28;20529;-72
2024/01/03 02:39:27;;;;;;;1.50;0.40;;;;;;;8.98;100.00;98272.28;5037059;28;20522;-71
2024/01/03 02:41:54;;;;;;;1.50;0.30;;;;;;;9.02;100.00;98267.78;5036414;28;20449;-71
2024/01/03 02:44:23;;;;;;;1.57;0.30;;;;;;;9.08;100.00;98275.28;5036440;28;20463;-71
2024/01/03 02:46:50;;;;;;;1.63;0.43;;;;;;;9.14;100.00;98272.31;5036307;28;20817;-69
2024/01/03 02:49:16;;;;;;;1.50;0.30;;;;;;;9.17;100.00;98274.34;5036223;28;20577;-69
2024/01/03 02:51:43;;;;;;;1.50;0.30;;;;;;;9.17;100.00;98275.13;5036210;28;20534;-69
2024/01/03 02:54:09;;;;;;;1.50;0.40;;;;;;;9.18;100.00;98287.47;5036269;28;20559;-69
2024/01/03 02:56:39;;;;;;;1.60;0.40;;;;;;;9.25;100.00;98281.44;5035891;28;21018;-69
2024/01/03 02:59:06;;;;;;;1.70;0.40;;;;;;;9.31;100.00;98280.06;5035888;28;20513;-69
2024/01/03 03:01:33;;;;;;;1.60;0.40;;;;;;;9.35;100.00;98276.31;5035770;28;20483;-69
2024/01/03 03:04:00;;;;;;;1.57;0.40;;;;;;;9.30;100.00;98284.69;5036450;28;20469;-69
2024/01/03 03:06:27;;;;;;;1.50;0.30;;;;;;;9.37;100.00;98283.28;5035674;28;21022;-69
2024/01/03 03:08:54;;;;;;;1.60;0.40;;;;;;;9.39;100.00;98281.03;5035511;28;21010;-69
2024/01/03 03:11:20;;;;;;;1.60;0.50;;;;;;;9.41;100.00;98278.75;5035855;28;20443;-69
2024/01/03 03:13:48;;;;;;;1.60;0.50;;;;;;;9.43;100.00;98284.59;5035383;28;20939;-69
2024/01/03 03:16:15;;;;;;;1.57;0.40;;;;;;;9.42;100.00;98274.91;5035467;28;20942;-69
2024/01/03 03:18:42;;;;;;;1.57;0.40;;;;;;;9.39;100.00;98276.41;5035324;28;20440;-69
2024/01/03 03:21:10;;;;;;;1.70;0.40;;;;;;;9.38;100.00;98288.34;5035304;28;20486;-69
2024/01/03 03:23:36;;;;;;;1.50;0.30;;;;;;;9.41;100.00;98297.66;5036098;28;20439;-70
2024/01/03 03:26:04;;;;;;;1.60;0.40;;;;;;;9.40;100.00;98283.38;5035686;28;20440;-70
2024/01/03 03:28:32;;;;;;;2.10;0.80;;;;;;;9.42;100.00;98296.53;5035455;28;20843;-70
2024/01/03 03:31:00;;;;;;;1.53;0.30;;;;;;;9.34;100.00;98284.75;5035634;28;20493;-70
2024/01/03 03:33:26;;;;;;;1.50;0.30;;;;;;;9.34;100.00;98285.56;5035050;28;20939;-70
2024/01/03 03:35:53;;;;;;;1.50;0.30;;;;;;;9.30;100.00;98284.69;5035057;28;21001;-70
2024/01/03 03:38:19;;;;;;;1.60;0.30;;;;;;;9.32;100.00;98284.34;5035370;28;20534;-70
2024/01/03 03:40:46;;;;;;;1.50;0.30;;;;;;;9.35;100.00;98291.75;5035394;28;20439;-70
2024/01/03 03:43:12;;;;;;;1.50;0.30;;;;;;;9.33;100.00;98294.78;5034974;28;21022;-70
2024/01/03 03:45:39;;;;;;;1.60;0.40;;;;;;;9.25;100.00;98287.66;5035169;28;20463;-69
2024/01/03 03:48:08;;;;;;;1.60;0.40;;;;;;;9.19;100.00;98294.44;5034793;28;20518;-69
2024/01/03 03:50:34;;;;;;;1.50;0.40;;;;;;;9.17;100.00;98290.53;5035011;28;20883;-69
2024/01/03 03:53:01;;;;;;;1.50;0.30;;;;;;;9.18;100.00;98292.88;5035069;28;20443;-70
2024/01/03 03:55:27;;;;;;;1.50;0.40;;;;;;;9.11;100.00;98292.69;5035070;28;20459;-70
2024/01/03 03:57:54;;;;;;;1.57;0.30;;;;;;;9.14;100.00;98292.00;5035000;28;20442;-69
2024/01/03 04:00:21;;;;;;;1.50;0.30;;;;;;;9.18;100.00;98289.41;5064295;22;20581;-73
2024/01/03 04:02:47;;;;;;;1.80;0.50;;;;;;;9.20;100.00;98284.41;5054856;28;20438;-73
2024/01/03 04:05:15;;;;;;;1.70;0.43;;;;;;;9.21;100.00;98286.78;5054744;28;20463;-73
2024/01/03 04:07:42;;;;;;;1.60;0.40;;;;;;;9.21;100.00;98281.38;5054687;28;20516;-73
2024/01/03 04:10:10;;;;;;;1.70;0.50;;;;;;;9.16;100.00;98286.25;5054589;28;20492;-73
2024/01/03 04:12:38;;;;;;;1.60;0.40;;;;;;;9.14;100.00;98278.50;5054745;28;20434;-73
2024/01/03 04:15:05;;;;;;;1.50;0.33;;;;;;;9.16;100.00;98273.53;5054236;28;20467;-73
2024/01/03 04:17:32;;;;;;;1.50;0.30;;;;;;;9.18;100.00;98282.06;5054517;28;20458;-73
2024/01/03 04:19:59;;;;;;;1.50;0.30;;;;;;;9.14;100.00;98283.13;5054473;28;20481;-73
2024/01/03 04:22:28;;;;;;;1.60;0.40;;;;;;;9.10;100.00;98280.31;5054644;28;20446;-73
2024/01/03 04:24:54;;;;;;;1.60;0.40;;;;;;;9.07;100.00;98286.41;5054146;28;20493;-73
2024/01/03 04:27:22;;;;;;;1.50;0.30;;;;;;;9.09;100.00;98290.34;5054351;28;20441;-73
2024/01/03 04:29:48;;;;;;;1.60;0.40;;;;;;;9.07;100.00;98291.81;5054434;28;20540;-73
2024/01/03 04:32:15;;;;;;;1.50;0.30;;;;;;;9.13;100.00;98293.13;5054140;28;20441;-73
2024/01/03 04:34:42;;;;;;;1.60;0.40;;;;;;;9.20;100.00;98297.91;5054240;28;20497;-73
2024/01/03 04:37:08;;;;;;;1.57;0.30;;;;;;;9.20;100.00;98298.69;5054144;28;20524;-73
2024/01/03 04:39:36;;;;;;;1.50;0.40;;;;;;;9.25;100.00;98314.69;5053866;28;20529;-73
2024/01/03 04:42:03;;;;;;;1.80;0.70;;;;;;;9.24;100.00;98299.56;5053774;28;20525;-73
2024/01/03 04:44:30;;;;;;;1.70;0.40;;;;;;;9.28;100.00;98303.16;5053989;28;20458;-73
2024/01/03 04:46:57;;;;;;;1.50;0.40;;;;;;;9.28;100.00;98305.84;5054505;28;20526;-74
2024/01/03 04:49:23;;;;;;;1.70;0.40;;;;;;;9.22;100.00;98315.38;5053782;28;20486;-73
2024/01/03 04:51:50;;;;;;;1.50;0.33;;;;;;;9.23;100.00;98319.63;5053576;28;21025;-73
2024/01/03 04:54:16;;;;;;;1.50;0.30;;;;;;;9.35;100.00;98316.84;5053728;28;20545;-73
2024/01/03 04:56:44;;;;;;;1.60;0.40;;;;;;;9.34;100.00;98318.00;5053868;28;21006;-73
2024/01/03 04:59:11;;;;;;;2.63;0.40;;;;;;;9.31;100.00;98324.06;5053878;28;20454;-73
2024/01/03 05:01:38;;;;;;;1.50;0.40;;;;;;;9.32;100.00;98325.63;5053513;28;20455;-74
2024/01/03 05:04:04;;;;;;;1.50;0.30;;;;;;;9.38;100.00;98328.06;5053744;28;20970;-73
2024/01/03 05:06:31;;;;;;;1.53;0.40;;;;;;;9.45;100.00;98317.47;5054044;28;20537;-73
2024/01/03 05:08:58;;;;;;;1.50;0.30;;;;;;;9.51;100.00;98326.84;5053598;28;20489;-73
2024/01/03 05:11:25;;;;;;;1.70;0.50;;;;;;;9.54;100.00;98320.75;5053576;28;20472;-72
2024/01/03 05:13:52;;;;;;;1.50;0.40;;;;;;;9.45;100.00;98323.63;5053869;28;20442;-72
2024/01/03 05:16:19;;;;;;;1.53;0.40;;;;;;;9.42;100.00;98328.94;5053757;28;20520;-72
2024/01/03 05:18:46;;;;;;;1.53;0.30;;;;;;;9.44;100.00;98322.09;5053500;28;20883;-72
2024/01/03 05:21:13;;;;;;;1.50;0.33;;;;;;;9.45;100.00;98329.03;5053525;28;20529;-72
2024/01/03 05:23:39;;;;;;;2.17;0.53;;;;;;;9.47;100.00;98332.16;5053089;28;20444;-71
2024/01/03 05:26:06;;;;;;;1.50;0.30;;;;;;;9.44;100.00;98329.41;5053540;28;20442;-72
2024/01/03 05:28:33;;;;;;;1.60;0.47;;;;;;;9.49;100.00;98329.13;5053389;28;20914;-72
2024/01/03 05:31:01;;;;;;;1.50;0.30;;;;;;;9.45;100.00;98330.97;5053268;28;20862;-75
2024/01/03 05:33:27;;;;;;;1.60;0.40;;;;;;;9.51;100.00;98327.63;5053685;28;20469;-72
2024/01/03 05:35:54;;;;;;;1.90;0.60;;;;;;;9.51;100.00;98330.34;5053196;28;20507;-73
2024/01/03 05:38:21;;;;;;;3.00;0.53;;;;;;;9.49;100.00;98339.94;5053010;28;20446;-73
2024/01/03 05:40:50;;;;;;;1.50;0.30;;;;;;;9.45;100.00;98339.06;5053014;28;20442;-73
2024/01/03 05:43:17;;;;;;;1.57;0.37;;;;;;;9.42;100.00;98342.47;5055547;28;20441;-73
2024/01/03 05:45:43;;;;;;;1.80;0.40;;;;;;;9.37;100.00;98345.44;5057729;28;20477;-73
2024/01/03 05:48:11;;;;;;;1.50;0.40;;;;;;;9.46;100.00;98344.13;5057384;28;20442;-73
2024/01/03 05:50:38;;;;;;;1.50;0.30;;;;;;;9.47;100.00;98347.59;5057553;28;20484;-73
2024/01/03 05:53:05;;;;;;;1.50;0.30;;;;;;;9.48;100.00;98341.09;5057030;28;20431;-73
2024/01/03 05:55:31;;;;;;;4.53;0.43;;;;;;;9.39;100.00;98349.38;5057424;28;20462;-73
2024/01/03 05:57:58;;;;;;;1.80;0.43;;;;;;;9.47;100.00;98344.91;5057030;28;20433;-74
2024/01/03 06:00:24;;;;;;;1.80;0.50;;;;;;;9.53;100.00;98346.22;5057656;28;20537;-74
2024/01/03 06:02:51;;;;;;;1.57;0.47;;;;;;;9.50;100.00;98352.31;5056864;28;20446;-74
2024/01/03 06:05:20;;;;;;;1.60;0.40;;;;;;;9.46;100.00;98357.63;5056745;28;20842;-74
2024/01/03 06:07:47;;;;;;;2.10;0.70;;;;;;;9.48;100.00;98349.97;5056789;28;20528;-74
2024/01/03 06:10:14;;;;;;;1.60;0.40;;;;;;;9.52;100.00;98356.25;5056781;28;21069;-74
2024/01/03 06:12:40;;;;;;;2.73;0.50;;;;;;;9.51;100.00;98354.66;5056922;28;20477;-74
2024/01/03 06:15:08;;;;;;;1.60;0.40;;;;;;;9.58;100.00;98365.66;5056944;28;20489;-74
2024/01/03 06:17:34;;;;;;;2.00;0.47;;;;;;;9.66;100.00;98371.25;5056933;28;20513;-74
2024/01/03 06:20:01;;;;;;;3.13;0.50;;;;;;;9.62;100.00;98370.38;5056592;28;21003;-74
2024/01/03 06:22:29;;;;;;;1.50;0.40;;;;;;;9.66;100.00;98376.66;5056826;28;20442;-73
2024/01/03 06:24:56;;;;;;;2.33;0.40;;;;;;;9.62;100.00;98376.56;5056605;28;20537;-73
2024/01/03 06:27:23;;;;;;;1.70;0.50;;;;;;;9.64;100.00;98385.09;5056776;28;20442;-73
2024/01/03 06:29:49;;;;;;;1.70;0.40;;;;;;;9.63;100.00;98391.63;5056287;28;20536;-73
2024/01/03 06:32:16;;;;;;;16.70;0.70;;;;;;;9.64;100.00;98389.72;5056408;28;20450;-74
2024/01/03 06:34:43;;;;;;;1.60;0.40;;;;;;;9.63;100.00;98388.94;5038605;28;21021;-73
2024/01/03 06:37:09;;;;;;;1.53;0.40;;;;;;;9.55;100.00;98398.00;5056932;28;20528;-73
2024/01/03 06:39:37;;;;;;;1.70;0.43;;;;;;;9.54;100.00;98397.22;5056653;28;21021;-73
2024/01/03 06:42:05;;;;;;;1.60;0.40;;;;;;;9.64;100.00;98401.31;5056231;28;20529;-73
2024/01/03 06:44:31;;;;;;;1.60;0.40;;;;;;;9.68;100.00;98401.41;5056480;28;20454;-73
2024/01/03 06:46:58;;;;;;;1.80;0.50;;;;;;;9.69;100.00;98411.84;5057050;28;20447;-73
2024/01/03 06:49:24;;;;;;;1.50;0.40;;;;;;;9.61;100.00;98412.84;5056887;28;20573;-74
2024/01/03 06:51:51;;;;;;;2.23;0.70;;;;;;;9.65;100.00;98405.59;5056413;28;20442;-74
2024/01/03 06:54:18;;;;;;;1.50;0.40;;;;;;;9.68;100.00;98423.81;5055984;28;20949;-73
2024/01/03 06:56:46;;;;;;;1.50;0.40;;;;;;;9.69;100.00;98422.66;5056536;28;20529;-73
2024/01/03 06:59:12;;;;;;;1.50;0.30;;;;;;;9.64;100.00;98419.44;5055665;28;20549;-73
2024/01/03 07:01:39;;;;;;;1.50;0.30;;;;;;;9.66;100.00;98420.69;5056165;28;20518;-73
2024/01/03 07:04:05;;;;;;;1.80;0.60;;;;;;;9.71;100.00;98420.41;5055737;28;20889;-73
2024/01/03 07:06:32;;;;;;;1.90;0.50;;;;;;;9.71;100.00;98422.34;5055927;28;20434;-73
2024/01/03 07:08:59;;;;;;;1.70;0.40;;;;;;;9.65;100.00;98429.94;5056221;28;20529;-73
2024/01/03 07:11:25;;;;;;;1.70;0.40;;;;;;;9.61;100.00;98423.66;5055872;28;20535;-73
2024/01/03 07:13:53;;;;;;;1.60;0.50;;;;;;;9.52;100.00;98428.44;5055346;28;20498;-73
2024/01/03 07:16:20;;;;;;;2.10;0.60;;;;;;;9.43;100.00;98428.59;5055418;28;20472;-73
2024/01/03 07:18:46;;;;;;;1.50;0.40;;;;;;;9.47;100.00;98434.84;5055643;28;20531;-73
2024/01/03 07:21:13;;;;;;;1.50;0.40;;;;;;;9.45;100.00;98431.72;5056140;28;20526;-73
2024/01/03 07:23:40;;;;;;;1.50;0.30;;;;;;;9.47;100.00;98442.97;5055154;28;21009;-73
2024/01/03 07:26:06;;;;;;;1.83;0.40;;;;;;;9.49;100.00;98434.53;5056190;28;20445;-73
2024/01/03 07:28:33;;;;;;;1.60;0.40;;;;;;;9.54;100.00;98439.66;5055556;28;20446;-73
2024/01/03 07:31:01;;;;;;;1.77;0.50;;;;;;;9.56;100.00;98429.28;5055096;28;20856;-73
2024/01/03 07:33:28;;;;;;;1.50;0.30;;;;;;;9.54;100.00;98436.97;5055454;28;20500;-73
2024/01/03 07:35:54;;;;;;;1.50;0.40;;;;;;;9.66;100.00;98444.22;5055239;28;20462;-73
2024/01/03 07:38:21;;;;;;;1.50;0.40;;;;;;;9.74;100.00;98433.25;5055358;28;20537;-73
2024/01/03 07:40:47;;;;;;;1.57;0.40;;;;;;;9.75;100.00;98434.81;5054919;28;20842;-73
2024/01/03 07:43:14;;;;;;;3.00;0.50;;;;;;;9.83;100.00;98435.78;5055249;28;20529;-70
2024/01/03 07:45:41;;;;;;;1.80;0.50;;;;;;;9.81;99.52;98436.13;5055436;28;20561;-72
2024/01/03 07:48:09;;;;;;;1.60;0.40;;;;;;;9.80;100.00;98437.25;5054802;28;20935;-71
2024/01/03 07:50:36;;;;;;;1.60;0.40;;;;;;;9.78;100.00;98439.53;5054714;28;20850;-72
2024/01/03 07:53:02;;;;;;;1.70;0.50;;;;;;;9.79;99.47;98430.28;5055438;28;20448;-72
2024/01/03 07:55:29;;;;;;;3.00;0.50;;;;;;;9.92;98.14;98435.59;5055297;28;20466;-74
2024/01/03 07:57:56;;;;;;;1.60;0.40;;;;;;;9.95;97.38;98434.88;5055042;28;20444;-75
2024/01/03 08:00:22;;;;;;;1.60;0.40;;;;;;;9.89;97.94;98439.00;5054716;28;20446;-74
2024/01/03 08:02:49;;;;;;;1.70;0.50;;;;;;;9.89;98.08;98447.13;5054566;28;21023;-74
2024/01/03 08:05:17;;;;;;;1.50;0.40;;;;;;;10.06;95.55;98450.25;5054043;28;20545;-74
2024/01/03 08:07:44;;;;;;;1.60;0.40;;;;;;;10.03;96.16;98455.56;5054467;28;20438;-74
2024/01/03 08:10:11;;;;;;;1.60;0.47;;;;;;;9.95;97.25;98443.00;5054638;28;20512;-74
2024/01/03 08:12:38;;;;;;;1.50;0.30;;;;;;;9.94;96.97;98442.22;5054643;28;20525;-74
2024/01/03 08:15:05;;;;;;;1.53;0.37;;;;;;;10.01;95.83;98452.44;5054899;28;20468;-75
2024/01/03 08:17:32;;;;;;;1.50;0.40;;;;;;;9.97;96.21;98457.75;5054706;28;20533;-76
2024/01/03 08:19:58;;;;;;;1.60;0.40;;;;;;;9.98;96.44;98453.13;5054533;28;20537;-76
2024/01/03 08:22:26;;;;;;;2.03;0.50;;;;;;;10.00;96.75;98458.97;5054998;28;20918;-75
2024/01/03 08:24:53;;;;;;;1.50;0.30;;;;;;;10.04;95.92;98451.72;5054039;28;20989;-74
2024/01/03 08:27:20;;;;;;;2.00;0.50;;;;;;;10.11;94.86;98458.09;5054358;28;20474;-76
2024/01/03 08:29:47;;;;;;;1.70;0.40;;;;;;;10.11;95.41;98457.31;5054903;28;20997;-76
2024/01/03 08:32:14;;;;;;;1.70;0.43;;;;;;;10.08;96.03;98453.38;5055429;28;20495;-78
2024/01/03 08:34:41;;;;;;;1.80;0.50;;;;;;;10.02;96.81;98459.41;5055610;28;20541;-77
2024/01/03 08:37:08;;;;;;;1.50;0.30;;;;;;;10.09;95.91;98464.97;5055489;28;20799;-78
2024/01/03 08:39:36;;;;;;;1.57;0.40;;;;;;;10.10;96.01;98453.81;5054985;28;20915;-75
2024/01/03 08:42:03;;;;;;;2.00;0.50;;;;;;;10.14;95.35;98462.03;5053967;28;20434;-75
2024/01/03 08:44:30;;;;;;;1.70;0.50;;;;;;;10.23;94.01;98462.63;5054008;28;20462;-77
2024/01/03 08:46:57;;;;;;;1.57;0.30;;;;;;;10.20;95.00;98465.25;5054414;28;20935;-75
2024/01/03 08:49:24;;;;;;;1.60;0.40;;;;;;;10.18;95.19;98462.91;5053970;28;20443;-75
2024/01/03 08:51:51;;;;;;;1.50;0.33;;;;;;;10.20;95.70;98463.31;5053931;28;21077;-75
2024/01/03 08:54:17;;;;;;;1.60;0.40;;;;;;;10.21;95.61;98466.81;5053567;28;21005;-75
2024/01/03 08:56:49;;;;;;;1.60;0.50;;;;;;;10.18;95.74;98464.81;5054135;28;20444;-75
2024/01/03 08:59:15;;;;;;;1.50;0.30;;;;;;;10.20;96.09;98465.25;5053771;28;20446;-75
2024/01/03 09:01:42;;;;;;;1.90;0.40;;;;;;;10.25;95.03;98463.09;5054072;28;20525;-74
2024/01/03 09:04:08;;;;;;;1.60;0.40;;;;;;;10.24;95.39;98479.66;5053320;28;20901;-74
2024/01/03 09:06:35;;;;;;;1.70;0.40;;;;;;;10.26;95.34;98475.47;5053842;28;20438;-75
2024/01/03 09:09:02;;;;;;;1.60;0.30;;;;;;;10.29;94.61;98472.06;5053752;28;20458;-75
2024/01/03 09:11:30;;;;;;;1.60;0.50;;;;;;;10.40;92.61;98472.31;5053486;28;20486;-72
2024/01/03 09:13:58;;;;;;;1.60;0.40;;;;;;;10.39;92.62;98467.25;5053356;28;20985;-72
2024/01/03 09:16:26;;;;;;;1.63;0.37;;;;;;;10.42;93.15;98480.09;5053189;28;20434;-72
2024/01/03 09:18:53;;;;;;;2.00;0.57;;;;;;;10.45;92.53;98479.41;5053126;28;20473;-72
2024/01/03 09:21:20;;;;;;;1.60;0.40;;;;;;;10.47;92.33;98485.22;5053460;28;20477;-73
2024/01/03 09:23:46;;;;;;;1.60;0.40;;;;;;;10.42;93.21;98483.59;5053955;28;20466;-74
2024/01/03 09:26:15;;;;;;;1.60;0.43;;;;;;;10.45;94.22;98479.41;5053413;28;20525;-74
2024/01/03 09:28:42;;;;;;;1.57;0.40;;;;;;;10.49;94.41;98482.94;5053951;28;20446;-74
2024/01/03 09:31:11;;;;;;;2.60;0.47;;;;;;;10.56;93.41;98491.25;5053146;28;20488;-73
2024/01/03 09:33:39;;;;;;;1.60;0.40;;;;;;;10.74;90.76;98488.94;5053382;28;20442;-72
2024/01/03 09:36:06;;;;;;;1.50;0.40;;;;;;;10.75;90.91;98493.19;5053455;28;20481;-73
2024/01/03 09:38:32;;;;;;;1.60;0.40;;;;;;;10.77;90.61;98482.81;5052977;28;20489;-73
2024/01/03 09:40:59;;;;;;;1.90;0.50;;;;;;;10.77;90.15;98489.00;5053727;28;20462;-73
2024/01/03 09:43:25;;;;;;;2.93;0.60;;;;;;;10.88;89.11;98491.94;5053405;28;20659;-73
2024/01/03 09:45:53;;;;;;;1.60;0.40;;;;;;;10.98;89.05;98471.63;5052883;28;20490;-73
2024/01/03 09:48:21;;;;;;;1.60;0.40;;;;;;;11.05;88.06;98485.34;5053767;28;20438;-72
2024/01/03 09:50:48;;;;;;;1.60;0.40;;;;;;;11.05;87.84;98482.63;5053131;28;20572;-72
2024/01/03 09:53:16;;;;;;;1.70;0.50;;;;;;;11.06;88.81;98486.91;5052883;28;20477;-73
2024/01/03 09:55:44;;;;;;;1.60;0.40;;;;;;;11.04;88.12;98484.56;5053041;28;20887;-73
2024/01/03 09:58:11;;;;;;;1.60;0.30;;;;;;;11.04;87.43;98476.44;5053033;28;20474;-72
2024/01/03 10:00:37;;;;;;;1.60;0.40;;;;;;;11.03;88.36;98471.38;5067155;22;20559;-63
2024/01/03 10:03:05;;;;;;;2.27;0.50;;;;;;;11.02;88.33;98483.31;5053112;28;20472;-63
2024/01/03 10:05:33;;;;;;;1.70;0.40;;;;;;;11.04;87.86;98476.44;5053045;28;20458;-63
2024/01/03 10:08:00;;;;;;;1.50;0.30;;;;;;;11.09;87.58;98478.06;5052977;28;20525;-63
2024/01/03 10:10:31;;;;;;;2.00;0.53;;;;;;;11.11;88.48;98471.16;5053110;28;20520;-65
2024/01/03 10:12:58;;;;;;;1.60;0.40;;;;;;;11.16;88.35;98475.50;5053753;28;20857;-64
2024/01/03 10:15:31;;;;;;;2.30;0.60;;;;;;;11.19;88.24;98477.50;5052933;28;20458;-65
2024/01/03 10:18:06;;;;;;;1.60;0.40;;;;;;;11.31;87.96;98482.00;5053079;28;20494;-63
2024/01/03 10:20:34;;;;;;;1.80;0.43;;;;;;;11.44;87.00;98480.69;5053480;28;20426;-63
2024/01/03 10:23:09;;;;;;;1.60;0.40;;;;;;;11.48;86.97;98483.47;5052643;28;20453;-63
2024/01/03 10:25:37;;;;;;;2.67;0.60;;;;;;;11.59;85.71;98487.94;5053110;28;20446;-62
2024/01/03 10:28:05;;;;;;;1.60;0.40;;;;;;;11.60;86.00;98491.47;5053051;28;20444;-63
2024/01/03 10:30:32;;;;;;;3.30;0.50;;;;;;;11.62;85.46;98475.59;5056902;28;20446;-63
2024/01/03 10:32:59;;;;;;;1.60;0.40;;;;;;;11.60;85.55;98477.91;5056933;28;20529;-63
2024/01/03 10:35:30;;;;;;;2.27;0.53;;;;;;;11.64;85.47;98476.00;5056367;28;20961;-62
2024/01/03 10:38:00;;;;;;;1.97;0.47;;;;;;;11.61;86.65;98482.19;5056929;28;20442;-63
2024/01/03 10:40:28;;;;;;;1.60;0.40;;;;;;;11.64;86.15;98473.31;5056196;28;20426;-62
2024/01/03 10:42:55;;;;;;;1.70;0.40;;;;;;;11.67;85.45;98472.59;5056435;28;20881;-63
2024/01/03 10:45:23;;;;;;;1.70;0.40;;;;;;;11.68;85.29;98479.56;5056366;28;20468;-63
2024/01/03 10:47:50;;;;;;;1.70;0.47;;;;;;;11.66;85.62;98481.88;5056418;28;20525;-63
2024/01/03 10:50:16;;;;;;;1.60;0.40;;;;;;;11.65;86.08;98487.66;5056346;28;20448;-63
2024/01/03 10:52:44;;;;;;;1.60;0.40;;;;;;;11.69;84.82;98475.75;5056401;28;20489;-63
2024/01/03 10:55:18;;;;;;;1.60;0.40;;;;;;;11.63;85.76;98480.66;5056394;28;20458;-63
2024/01/03 10:57:55;;;;;;;1.53;0.30;;;;;;;11.65;85.76;98482.25;5056195;28;20505;-62
2024/01/03 11:00:33;;;;;;;1.60;0.40;;;;;;;11.52;86.97;98485.13;5055931;28;20458;-66
2024/01/03 11:03:10;;;;;;;2.60;0.60;;;;;;;11.60;86.92;98484.09;5056080;28;20422;-65
2024/01/03 11:05:47;;;;;;;1.60;0.43;;;;;;;11.71;85.25;98486.22;5055649;28;20458;-63
2024/01/03 11:08:19;;;;;;;1.57;0.30;;;;;;;11.77;84.88;98490.97;5056342;28;20517;-63
2024/01/03 11:10:51;;;;;;;1.93;0.40;;;;;;;11.73;85.64;98487.44;5055798;28;20422;-63
2024/01/03 11:13:28;;;;;;;4.67;0.50;;;;;;;11.80;85.07;98478.63;5055451;28;20934;-62
2024/01/03 11:15:55;;;;;;;4.80;0.50;;;;;;;11.84;85.71;98474.88;5056038;28;20464;-63
2024/01/03 11:23:32;;;;;;;1.73;0.43;;;;;;;11.84;85.38;98480.28;5075449;22;20949;-73
2024/01/03 11:26:00;;;;;;;1.70;0.50;;;;;;;11.78;87.30;98464.66;5075956;28;20519;-75
2024/01/03 11:28:30;;;;;;;1.60;0.40;;;;;;;11.72;88.57;98461.44;5075696;28;20524;-74
2024/01/03 11:30:58;;;;;;;1.70;0.50;;;;;;;11.70;89.20;98460.25;5075262;28;20481;-73
2024/01/03 11:33:26;;;;;;;1.60;0.30;;;;;;;11.77;88.39;98454.94;5075796;28;20448;-72
2024/01/03 11:35:53;;;;;;;1.60;0.33;;;;;;;11.85;86.79;98452.00;5075283;28;20536;-69
2024/01/03 11:38:41;;;;;;;1.73;0.43;;;;;;;11.87;86.99;98459.81;5075543;28;20528;-69
2024/01/03 11:41:09;;;;;;;2.87;0.50;;;;;;;11.80;87.61;98460.44;5074782;28;20450;-70